Time;durP1;ratioP1;P1;durP2;ratioP2;P2;SDS_P1;SDS_P2;PMS_P1;PMS_P2;Temp;Humidity;BMP_temperature;BMP_pressure;BME280_temperature;BME280_humidity;BME280_pressure;Samples;Min_cycle;Max_cycle;Signal;HPM_P1;HPM_P2
2023/10/28 00:00:50;;;;;;;6.32;2.15;;;14.10;76.00;;;;;;5007394;28;20144;-50
2023/10/28 00:03:17;;;;;;;6.32;2.25;;;14.10;75.80;;;;;;5006824;28;20080;-52
2023/10/28 00:05:44;;;;;;;4.85;2.30;;;14.10;75.80;;;;;;5006020;28;20555;-46
2023/10/28 00:08:11;;;;;;;2.95;1.25;;;14.10;75.70;;;;;;5005847;28;20104;-50
2023/10/28 00:10:39;;;;;;;6.28;2.75;;;14.10;75.60;;;;;;5007417;28;20512;-46
2023/10/28 00:13:07;;;;;;;5.70;2.40;;;14.10;75.60;;;;;;5002805;28;20528;-52
2023/10/28 00:15:33;;;;;;;2.40;1.30;;;14.20;75.60;;;;;;5003848;28;20591;-47
2023/10/28 00:18:00;;;;;;;3.03;1.67;;;14.10;75.30;;;;;;5004143;28;20048;-47
2023/10/28 00:20:29;;;;;;;2.88;1.05;;;14.20;75.30;;;;;;5010584;28;20049;-51
2023/10/28 00:22:57;;;;;;;2.05;1.10;;;14.20;75.30;;;;;;5009856;28;20042;-49
2023/10/28 00:25:31;;;;;;;3.05;1.20;;;14.20;75.30;;;;;;5009073;28;20117;-49
2023/10/28 00:27:59;;;;;;;2.65;0.80;;;14.20;75.20;;;;;;5008639;28;20396;-47
2023/10/28 00:30:26;;;;;;;2.55;1.27;;;14.20;75.20;;;;;;4992960;28;20132;-47
2023/10/28 00:32:57;;;;;;;5.85;1.35;;;14.20;75.20;;;;;;5006989;28;20053;-51
2023/10/28 00:35:25;;;;;;;3.90;1.35;;;14.10;75.10;;;;;;4985837;28;20038;-48
2023/10/28 00:37:52;;;;;;;3.40;1.48;;;14.20;75.10;;;;;;5008886;28;20569;-49
2023/10/28 00:40:19;;;;;;;3.80;1.13;;;14.20;75.00;;;;;;5009645;28;20099;-49
2023/10/28 00:42:46;;;;;;;2.35;0.90;;;14.20;74.90;;;;;;5007587;28;20113;-47
2023/10/28 00:45:15;;;;;;;4.93;1.40;;;14.20;75.00;;;;;;5009731;28;20037;-48
2023/10/28 00:47:52;;;;;;;3.70;1.10;;;14.20;74.90;;;;;;5008946;28;20104;-48
2023/10/28 00:50:19;;;;;;;4.80;1.20;;;14.20;74.80;;;;;;5007495;28;20085;-49
2023/10/28 00:52:50;;;;;;;2.75;1.35;;;14.20;74.80;;;;;;4989091;28;20070;-50
2023/10/28 00:55:20;;;;;;;4.20;1.70;;;14.20;74.80;;;;;;5007018;28;20080;-50
2023/10/28 00:57:47;;;;;;;3.42;1.08;;;14.20;74.70;;;;;;5009009;28;20434;-49
2023/10/28 01:00:17;;;;;;;3.25;1.70;;;14.20;74.70;;;;;;5010306;28;20062;-52
2023/10/28 01:02:44;;;;;;;2.60;0.95;;;14.20;74.80;;;;;;5007614;28;20049;-48
2023/10/28 01:05:13;;;;;;;3.28;1.10;;;14.20;74.80;;;;;;4991207;28;20046;-50
2023/10/28 01:07:41;;;;;;;1.50;1.08;;;14.20;74.90;;;;;;4989238;28;20038;-52
2023/10/28 01:10:08;;;;;;;1.65;1.05;;;14.10;74.80;;;;;;4991786;28;20041;-48
2023/10/28 01:12:37;;;;;;;3.15;1.23;;;14.10;74.90;;;;;;5008894;28;20034;-49
2023/10/28 01:15:05;;;;;;;1.00;0.90;;;14.10;75.00;;;;;;5007070;28;20539;-49
2023/10/28 01:17:32;;;;;;;2.83;1.27;;;14.10;75.10;;;;;;4991580;28;20389;-51
2023/10/28 01:19:59;;;;;;;2.60;1.13;;;14.10;75.10;;;;;;5008647;28;20033;-49
2023/10/28 01:22:28;;;;;;;4.80;1.10;;;14.10;75.20;;;;;;5004371;28;20052;-49
2023/10/28 01:24:55;;;;;;;2.22;1.20;;;14.10;75.30;;;;;;4987922;28;20101;-46
2023/10/28 01:27:21;;;;;;;4.15;1.50;;;14.00;75.30;;;;;;5006027;28;20399;-47
2023/10/28 01:29:48;;;;;;;4.65;1.77;;;14.10;75.50;;;;;;5008288;28;20194;-50
2023/10/28 01:32:15;;;;;;;2.00;1.42;;;14.00;75.50;;;;;;5008611;28;20121;-51
2023/10/28 01:35:00;;;;;;;4.25;1.58;;;14.00;75.70;;;;;;4974329;28;20041;-50
2023/10/28 01:37:27;;;;;;;2.97;1.63;;;14.00;76.20;;;;;;5006549;28;20558;-49
2023/10/28 01:39:53;;;;;;;2.03;1.30;;;14.00;75.80;;;;;;5008226;28;20069;-50
2023/10/28 01:42:24;;;;;;;2.83;1.70;;;14.00;75.90;;;;;;5007624;28;20038;-48
2023/10/28 01:44:51;;;;;;;1.95;1.20;;;14.00;76.00;;;;;;5005416;28;20072;-51
2023/10/28 01:47:17;;;;;;;2.00;1.23;;;14.00;76.00;;;;;;5008409;28;20065;-48
2023/10/28 01:49:48;;;;;;;1.65;0.98;;;14.00;76.00;;;;;;4990663;28;20038;-52
2023/10/28 01:52:15;;;;;;;5.47;1.00;;;14.00;76.00;;;;;;4989163;28;20045;-50
2023/10/28 01:54:43;;;;;;;2.63;1.10;;;14.00;76.10;;;;;;5005384;28;20038;-52
2023/10/28 01:57:10;;;;;;;1.65;0.85;;;14.00;76.00;;;;;;5006800;28;20576;-47
2023/10/28 01:59:38;;;;;;;1.20;0.90;;;14.00;76.00;;;;;;4990249;28;20041;-49
2023/10/28 02:02:07;;;;;;;2.08;0.80;;;14.00;76.00;;;;;;4990324;28;20049;-51
2023/10/28 02:04:34;;;;;;;1.90;0.80;;;14.00;76.00;;;;;;5004872;28;20124;-49
2023/10/28 02:07:01;;;;;;;1.27;1.17;;;14.00;75.90;;;;;;4992052;28;20125;-49
2023/10/28 02:09:28;;;;;;;2.05;0.80;;;14.00;76.00;;;;;;4990840;28;20398;-51
2023/10/28 02:11:55;;;;;;;2.28;0.93;;;14.00;76.00;;;;;;4991112;28;20108;-50
2023/10/28 02:14:23;;;;;;;2.33;1.02;;;14.00;76.10;;;;;;4989721;28;20052;-48
2023/10/28 02:16:50;;;;;;;2.92;1.02;;;14.00;76.10;;;;;;4989700;28;20073;-49
2023/10/28 02:19:17;;;;;;;2.70;1.00;;;14.00;76.00;;;;;;5004895;28;20077;-49
2023/10/28 02:21:44;;;;;;;2.88;0.98;;;14.00;76.00;;;;;;4989931;28;20038;-47
2023/10/28 02:24:13;;;;;;;1.60;0.82;;;14.00;76.10;;;;;;4992949;28;20124;-52
2023/10/28 02:26:40;;;;;;;1.27;0.47;;;14.00;76.10;;;;;;4987335;28;20041;-48
2023/10/28 02:29:07;;;;;;;1.45;0.60;;;14.00;76.10;;;;;;5007710;28;20129;-49
2023/10/28 02:31:34;;;;;;;2.83;0.90;;;13.90;76.20;;;;;;5003659;28;20676;-52
2023/10/28 02:34:05;;;;;;;1.80;0.77;;;14.00;76.40;;;;;;4990218;28;20045;-51
2023/10/28 02:36:32;;;;;;;1.25;1.05;;;14.00;76.50;;;;;;5008367;28;20574;-48
2023/10/28 02:39:00;;;;;;;1.02;0.60;;;14.00;76.50;;;;;;5002650;28;20121;-49
2023/10/28 02:41:27;;;;;;;1.95;0.82;;;14.00;76.40;;;;;;5004661;28;20045;-52
2023/10/28 02:43:54;;;;;;;2.35;0.70;;;14.00;76.40;;;;;;5009029;28;20065;-48
2023/10/28 02:46:25;;;;;;;2.83;0.73;;;14.00;76.40;;;;;;5007874;28;20041;-50
2023/10/28 02:48:51;;;;;;;2.60;0.70;;;14.00;76.40;;;;;;4985985;28;20459;-49
2023/10/28 02:51:18;;;;;;;1.23;0.80;;;14.00;76.40;;;;;;5007081;28;20085;-49
2023/10/28 02:53:45;;;;;;;2.63;1.15;;;14.00;76.40;;;;;;4989238;28;20092;-50
2023/10/28 02:56:12;;;;;;;2.42;0.80;;;14.00;76.40;;;;;;5005453;28;20042;-51
2023/10/28 02:58:39;;;;;;;4.18;1.25;;;14.00;76.30;;;;;;4989188;28;20057;-48
2023/10/28 03:01:11;;;;;;;1.10;0.80;;;14.00;76.40;;;;;;4991966;28;20042;-51
2023/10/28 03:03:39;;;;;;;1.02;0.60;;;14.00;76.30;;;;;;4985412;28;20057;-51
2023/10/28 03:06:06;;;;;;;2.28;0.82;;;14.00;76.30;;;;;;5005087;28;20030;-51
2023/10/28 03:08:33;;;;;;;1.38;0.98;;;14.00;76.20;;;;;;5005749;28;20054;-51
2023/10/28 03:11:00;;;;;;;1.73;0.70;;;13.90;76.70;;;;;;4989191;28;20484;-49
2023/10/28 03:13:27;;;;;;;1.05;0.95;;;13.90;75.90;;;;;;4989253;28;20057;-49
2023/10/28 03:15:56;;;;;;;2.80;0.70;;;13.90;75.80;;;;;;4989618;28;20468;-49
2023/10/28 03:18:23;;;;;;;3.05;1.00;;;13.90;75.80;;;;;;4989001;28;20100;-52
2023/10/28 03:20:50;;;;;;;3.08;0.75;;;13.80;75.80;;;;;;5006486;28;20445;-51
2023/10/28 03:23:17;;;;;;;1.40;0.70;;;13.80;75.80;;;;;;4987118;28;20654;-49
2023/10/28 03:25:43;;;;;;;1.85;0.85;;;13.70;75.80;;;;;;4985853;28;20096;-47
2023/10/28 03:28:10;;;;;;;1.42;0.80;;;13.70;75.80;;;;;;5003294;28;20647;-48
2023/10/28 03:30:37;;;;;;;1.38;0.90;;;13.70;75.80;;;;;;4987659;28;20061;-45
2023/10/28 03:33:03;;;;;;;2.15;0.60;;;13.60;75.70;;;;;;5005606;28;20054;-48
2023/10/28 03:35:30;;;;;;;2.10;0.80;;;13.60;75.70;;;;;;5001250;28;20049;-48
2023/10/28 03:37:57;;;;;;;2.97;1.08;;;13.50;75.80;;;;;;5005399;28;20049;-51
2023/10/28 03:40:24;;;;;;;1.65;0.70;;;13.50;75.80;;;;;;4989324;28;20041;-49
2023/10/28 03:42:51;;;;;;;2.95;0.55;;;13.50;75.90;;;;;;5002544;28;20070;-51
2023/10/28 03:45:17;;;;;;;2.20;1.10;;;13.40;75.90;;;;;;5006396;28;20135;-50
2023/10/28 03:47:45;;;;;;;4.10;0.93;;;13.40;76.00;;;;;;5006266;28;20552;-48
2023/10/28 03:50:12;;;;;;;0.93;0.60;;;13.40;76.10;;;;;;4988917;28;20034;-52
2023/10/28 03:52:39;;;;;;;1.95;0.60;;;13.30;76.10;;;;;;5004215;28;20050;-48
2023/10/28 03:55:07;;;;;;;1.02;0.75;;;13.30;76.20;;;;;;5006866;28;20044;-51
2023/10/28 03:57:33;;;;;;;1.52;0.82;;;13.30;76.40;;;;;;5009795;28;20603;-51
2023/10/28 04:00:00;;;;;;;0.60;0.60;;;13.30;76.50;;;;;;5012590;28;20160;-51
2023/10/28 04:02:28;;;;;;;3.45;0.90;;;13.30;76.60;;;;;;5011336;28;20117;-51
2023/10/28 04:04:55;;;;;;;1.30;0.88;;;13.30;76.80;;;;;;5006835;28;20046;-49
2023/10/28 04:07:21;;;;;;;2.70;1.15;;;13.30;76.80;;;;;;5009006;28;20057;-51
2023/10/28 04:09:48;;;;;;;1.70;1.48;;;13.30;76.80;;;;;;5010608;28;20399;-47
2023/10/28 04:12:15;;;;;;;1.65;0.80;;;13.30;76.80;;;;;;5009178;28;20041;-48
2023/10/28 04:14:44;;;;;;;2.05;1.10;;;13.30;76.70;;;;;;5010504;28;20137;-50
2023/10/28 04:17:11;;;;;;;3.33;1.27;;;13.30;76.70;;;;;;5004628;28;20500;-47
2023/10/28 04:19:38;;;;;;;2.70;0.90;;;13.30;76.60;;;;;;5002661;28;20048;-49
2023/10/28 04:22:05;;;;;;;2.13;1.08;;;13.40;76.60;;;;;;5010396;28;20037;-47
2023/10/28 04:24:31;;;;;;;1.58;1.30;;;13.40;76.60;;;;;;4991949;28;20069;-49
2023/10/28 04:26:59;;;;;;;2.10;0.95;;;13.40;76.60;;;;;;5007473;28;20088;-48
2023/10/28 04:29:26;;;;;;;1.20;0.90;;;13.40;76.40;;;;;;5008571;28;20038;-51
2023/10/28 04:31:52;;;;;;;1.52;0.75;;;13.40;76.40;;;;;;5009735;28;20111;-47
2023/10/28 04:34:19;;;;;;;2.05;1.13;;;13.40;76.30;;;;;;5008788;28;20264;-48
2023/10/28 04:36:46;;;;;;;2.28;1.35;;;13.40;76.30;;;;;;5008338;28;20684;-47
2023/10/28 04:39:13;;;;;;;1.20;0.80;;;13.40;76.30;;;;;;5008395;28;20045;-47
2023/10/28 04:41:39;;;;;;;3.15;0.88;;;13.40;76.40;;;;;;5009659;28;20100;-48
2023/10/28 04:44:07;;;;;;;2.58;0.98;;;13.50;76.50;;;;;;5007238;28;20424;-49
2023/10/28 04:46:34;;;;;;;2.78;1.00;;;13.50;76.50;;;;;;5009978;28;20400;-47
2023/10/28 04:49:00;;;;;;;4.55;1.40;;;13.50;76.30;;;;;;5009297;28;20038;-48
2023/10/28 04:51:27;;;;;;;2.20;0.90;;;13.50;76.20;;;;;;5006320;28;20139;-47
2023/10/28 04:53:56;;;;;;;2.72;0.95;;;13.60;76.20;;;;;;5004231;28;20416;-48
2023/10/28 04:56:23;;;;;;;2.60;1.13;;;13.50;76.00;;;;;;5001232;28;20042;-46
2023/10/28 04:58:49;;;;;;;1.00;0.70;;;13.60;76.10;;;;;;5008636;28;20893;-48
2023/10/28 05:01:16;;;;;;;2.63;0.88;;;13.50;76.00;;;;;;5010629;28;20096;-47
2023/10/28 05:03:43;;;;;;;1.00;0.68;;;13.60;76.00;;;;;;5004880;28;20041;-47
2023/10/28 05:06:09;;;;;;;2.28;0.80;;;13.60;76.00;;;;;;5007803;28;20042;-47
2023/10/28 05:08:37;;;;;;;2.13;1.05;;;13.60;76.10;;;;;;5008853;28;20050;-47
2023/10/28 05:11:04;;;;;;;2.40;0.90;;;13.60;76.00;;;;;;5010337;28;20064;-47
2023/10/28 05:13:30;;;;;;;3.97;1.10;;;13.60;76.00;;;;;;5005626;28;20112;-47
2023/10/28 05:15:58;;;;;;;1.02;0.82;;;13.60;76.10;;;;;;5003269;28;20196;-52
2023/10/28 05:18:26;;;;;;;2.38;1.15;;;13.60;76.10;;;;;;5003117;28;20088;-51
2023/10/28 05:20:53;;;;;;;1.33;0.73;;;13.60;76.00;;;;;;5008208;28;20108;-50
2023/10/28 05:23:20;;;;;;;1.05;0.98;;;13.60;75.80;;;;;;5008895;28;20484;-47
2023/10/28 05:25:49;;;;;;;0.85;0.65;;;13.60;75.70;;;;;;5006941;28;20048;-48
2023/10/28 05:28:15;;;;;;;4.65;0.95;;;13.60;75.70;;;;;;5007863;28;20527;-51
2023/10/28 05:30:42;;;;;;;1.17;0.77;;;13.60;75.80;;;;;;5010111;28;20153;-47
2023/10/28 05:33:10;;;;;;;2.08;1.05;;;13.60;76.00;;;;;;5008725;28;20128;-50
2023/10/28 05:35:37;;;;;;;1.35;1.02;;;13.60;76.10;;;;;;5004437;28;20034;-47
2023/10/28 05:38:03;;;;;;;1.73;0.80;;;13.60;76.10;;;;;;5008226;28;21992;-52
2023/10/28 05:40:30;;;;;;;2.15;1.00;;;13.70;76.20;;;;;;5008071;28;20037;-51
2023/10/28 05:42:57;;;;;;;4.32;1.17;;;13.70;76.20;;;;;;5006887;28;20100;-52
2023/10/28 05:45:24;;;;;;;2.13;0.90;;;13.70;76.20;;;;;;5007938;28;20500;-51
2023/10/28 05:47:52;;;;;;;1.65;0.68;;;13.70;76.30;;;;;;5007959;28;20042;-48
2023/10/28 05:50:19;;;;;;;2.85;1.00;;;13.70;76.20;;;;;;5006731;28;21119;-49
2023/10/28 05:52:47;;;;;;;3.63;0.90;;;13.70;76.10;;;;;;5006638;28;20042;-50
2023/10/28 05:55:13;;;;;;;2.53;0.85;;;13.80;76.10;;;;;;5005095;28;20054;-51
2023/10/28 05:57:41;;;;;;;1.63;0.85;;;13.80;76.10;;;;;;5007061;28;20084;-51
2023/10/28 06:00:10;;;;;;;2.33;1.00;;;13.80;76.10;;;;;;5009011;28;20089;-48
2023/10/28 06:02:37;;;;;;;3.03;1.30;;;13.80;76.00;;;;;;5008252;28;20122;-47
2023/10/28 06:05:05;;;;;;;1.00;0.68;;;13.80;75.90;;;;;;5007226;28;20046;-50
2023/10/28 06:07:32;;;;;;;1.65;0.70;;;13.80;75.90;;;;;;5008310;28;20042;-50
2023/10/28 06:09:59;;;;;;;2.60;1.35;;;13.80;75.80;;;;;;5006380;28;20053;-52
2023/10/28 06:12:26;;;;;;;1.08;0.65;;;13.80;75.80;;;;;;5005278;28;20125;-48
2023/10/28 06:14:53;;;;;;;2.50;1.23;;;13.80;75.80;;;;;;5008422;28;20057;-47
2023/10/28 06:17:24;;;;;;;1.00;0.63;;;13.90;75.90;;;;;;5006552;28;20464;-51
2023/10/28 06:19:51;;;;;;;1.50;1.13;;;13.90;75.80;;;;;;5008655;28;20092;-50
2023/10/28 06:22:18;;;;;;;3.72;1.00;;;13.90;75.70;;;;;;5007960;28;20038;-48
2023/10/28 06:24:44;;;;;;;1.08;0.70;;;13.90;75.80;;;;;;5004489;28;20096;-50
2023/10/28 06:27:11;;;;;;;0.63;0.50;;;13.90;75.80;;;;;;5005251;28;20135;-48
2023/10/28 06:29:38;;;;;;;1.40;0.98;;;13.90;75.80;;;;;;5001298;28;20073;-51
2023/10/28 06:32:06;;;;;;;2.15;0.80;;;13.90;75.80;;;;;;5006342;28;20049;-50
2023/10/28 06:34:33;;;;;;;1.05;0.52;;;13.90;75.90;;;;;;5005289;28;20790;-49
2023/10/28 06:37:00;;;;;;;2.20;1.23;;;13.90;75.90;;;;;;5006172;28;20042;-50
2023/10/28 06:39:27;;;;;;;1.45;0.60;;;13.90;76.60;;;;;;5007951;28;20046;-52
2023/10/28 06:41:54;;;;;;;1.67;0.60;;;13.90;75.90;;;;;;5006299;28;20037;-52
2023/10/28 06:44:23;;;;;;;0.82;0.30;;;13.90;75.90;;;;;;5001298;28;20081;-47
2023/10/28 06:46:50;;;;;;;1.45;0.50;;;14.00;75.90;;;;;;5007200;28;20054;-47
2023/10/28 06:49:16;;;;;;;1.50;0.70;;;14.00;75.90;;;;;;5007015;28;20092;-52
2023/10/28 06:51:43;;;;;;;0.90;0.57;;;14.00;76.00;;;;;;5005775;28;20121;-47
2023/10/28 06:54:10;;;;;;;2.35;0.70;;;14.00;75.90;;;;;;5005949;28;20471;-52
2023/10/28 06:56:37;;;;;;;2.05;0.95;;;14.00;75.90;;;;;;4999856;28;20066;-49
2023/10/28 06:59:04;;;;;;;1.45;0.82;;;14.00;75.90;;;;;;4990024;28;21740;-52
2023/10/28 07:01:32;;;;;;;1.95;0.80;;;14.10;76.00;;;;;;5002193;28;20042;-47
2023/10/28 07:03:59;;;;;;;1.63;0.60;;;14.10;76.10;;;;;;5007987;28;20058;-51
2023/10/28 07:06:26;;;;;;;1.83;0.70;;;14.10;76.10;;;;;;5002405;28;20070;-48
2023/10/28 07:08:53;;;;;;;1.65;0.90;;;14.20;76.10;;;;;;5006185;28;20038;-49
2023/10/28 07:11:21;;;;;;;0.43;0.43;;;14.10;76.00;;;;;;5007586;28;20077;-48
2023/10/28 07:13:50;;;;;;;1.13;0.50;;;14.20;76.10;;;;;;5008369;28;20068;-52
2023/10/28 07:16:17;;;;;;;1.00;0.47;;;14.20;76.10;;;;;;5003090;28;20042;-49
2023/10/28 07:18:44;;;;;;;1.75;0.60;;;14.20;76.10;;;;;;5005674;28;20042;-50
2023/10/28 07:21:11;;;;;;;1.08;0.60;;;14.20;76.10;;;;;;5006491;28;20563;-52
2023/10/28 07:23:38;;;;;;;2.60;0.63;;;14.30;76.20;;;;;;5006230;28;20046;-51
2023/10/28 07:26:05;;;;;;;0.47;0.45;;;14.30;76.30;;;;;;5004317;28;20084;-48
2023/10/28 07:28:33;;;;;;;2.05;0.82;;;14.30;76.30;;;;;;5010046;28;20046;-51
2023/10/28 07:31:01;;;;;;;2.75;0.57;;;14.30;76.30;;;;;;5010511;28;20046;-51
2023/10/28 07:33:28;;;;;;;1.27;0.40;;;14.40;76.30;;;;;;5006968;28;20122;-52
2023/10/28 07:35:55;;;;;;;2.28;0.55;;;14.40;76.80;;;;;;5008616;28;20125;-50
2023/10/28 07:38:22;;;;;;;1.10;0.32;;;14.50;76.20;;;;;;5008605;28;20089;-48
2023/10/28 07:40:49;;;;;;;1.98;0.50;;;14.50;76.10;;;;;;5009792;28;20057;-51
2023/10/28 07:43:19;;;;;;;1.33;0.50;;;14.50;76.10;;;;;;5004520;28;20052;-49
2023/10/28 07:45:46;;;;;;;1.65;0.47;;;14.50;76.00;;;;;;5010073;28;20037;-47
2023/10/28 07:48:13;;;;;;;0.82;0.60;;;14.60;75.90;;;;;;5010606;28;20049;-52
2023/10/28 07:50:42;;;;;;;1.38;0.47;;;14.60;75.80;;;;;;5007886;28;20556;-47
2023/10/28 07:53:09;;;;;;;1.52;0.70;;;14.60;75.90;;;;;;5007592;28;20121;-50
2023/10/28 07:55:38;;;;;;;1.70;0.95;;;14.70;75.90;;;;;;5002805;28;20041;-52
2023/10/28 07:58:08;;;;;;;1.85;0.80;;;14.70;75.80;;;;;;5006604;28;20038;-52
2023/10/28 08:00:36;;;;;;;0.70;0.52;;;14.70;75.90;;;;;;5007544;28;20444;-49
2023/10/28 08:03:07;;;;;;;1.77;0.88;;;14.70;75.70;;;;;;5010203;28;20060;-47
2023/10/28 08:05:36;;;;;;;2.15;0.80;;;14.80;75.60;;;;;;5008560;28;20049;-49
2023/10/28 08:08:03;;;;;;;2.42;0.40;;;14.80;75.70;;;;;;5008395;28;20145;-48
2023/10/28 08:10:30;;;;;;;0.65;0.32;;;14.80;75.60;;;;;;5010891;28;20540;-50
2023/10/28 08:12:56;;;;;;;2.58;0.80;;;14.80;75.40;;;;;;5008941;28;20128;-47
2023/10/28 08:15:29;;;;;;;3.30;0.52;;;14.90;75.40;;;;;;5007984;28;20067;-50
2023/10/28 08:17:56;;;;;;;1.55;0.70;;;14.90;75.30;;;;;;5007167;28;20049;-50
2023/10/28 08:20:23;;;;;;;1.92;0.85;;;14.90;75.30;;;;;;5010603;28;20046;-51
2023/10/28 08:22:50;;;;;;;3.33;1.00;;;14.90;75.40;;;;;;5010736;28;20045;-47
2023/10/28 08:25:17;;;;;;;2.88;0.65;;;15.00;75.20;;;;;;5005789;28;20038;-52
2023/10/28 08:27:47;;;;;;;2.10;1.10;;;15.00;75.30;;;;;;5008153;28;20069;-50
2023/10/28 08:30:17;;;;;;;1.95;0.70;;;15.00;75.20;;;;;;5009680;28;20041;-54
2023/10/28 08:32:44;;;;;;;2.08;0.80;;;15.10;75.20;;;;;;4992540;28;20073;-51
2023/10/28 08:35:11;;;;;;;2.03;0.80;;;15.20;75.30;;;;;;5008475;28;20073;-53
2023/10/28 08:37:41;;;;;;;2.28;0.95;;;15.20;75.10;;;;;;5008965;28;20516;-53
2023/10/28 08:40:11;;;;;;;2.50;0.93;;;15.20;74.90;;;;;;5010082;28;20478;-51
2023/10/28 08:42:38;;;;;;;1.48;0.55;;;15.30;74.80;;;;;;5007293;28;20404;-54
2023/10/28 08:45:11;;;;;;;1.95;0.50;;;15.30;74.70;;;;;;5009942;28;20116;-51
2023/10/28 08:47:41;;;;;;;1.45;0.80;;;15.40;74.70;;;;;;5004781;28;20065;-52
2023/10/28 08:50:11;;;;;;;2.15;0.80;;;15.40;74.40;;;;;;5008052;28;20405;-51
2023/10/28 08:52:39;;;;;;;1.83;0.60;;;15.40;74.40;;;;;;5010864;28;20619;-49
2023/10/28 08:55:10;;;;;;;3.47;0.90;;;15.50;74.30;;;;;;4990018;28;20046;-50
2023/10/28 08:57:41;;;;;;;1.55;0.80;;;15.50;74.10;;;;;;5004680;28;20088;-52
2023/10/28 09:00:17;;;;;;;2.70;0.82;;;15.60;74.00;;;;;;5006120;28;20451;-53
2023/10/28 09:02:45;;;;;;;1.30;0.70;;;15.60;73.80;;;;;;4991578;28;20692;-52
2023/10/28 09:05:14;;;;;;;1.38;0.50;;;15.60;73.70;;;;;;5008577;28;20076;-51
2023/10/28 09:07:43;;;;;;;2.17;0.77;;;15.60;73.70;;;;;;4990044;28;20386;-54
2023/10/28 09:10:11;;;;;;;1.73;0.77;;;15.60;73.70;;;;;;5009763;28;20548;-51
2023/10/28 09:12:38;;;;;;;3.65;0.98;;;15.60;73.50;;;;;;5010460;28;20100;-53
2023/10/28 09:15:08;;;;;;;2.03;0.70;;;15.60;73.40;;;;;;5009194;28;20069;-49
2023/10/28 09:17:35;;;;;;;3.33;0.60;;;15.70;73.50;;;;;;5001788;28;20038;-53
2023/10/28 09:20:09;;;;;;;1.38;0.60;;;15.70;73.40;;;;;;5009201;28;20591;-51
2023/10/28 09:22:38;;;;;;;3.03;1.37;;;15.70;73.30;;;;;;5010110;28;20496;-52
2023/10/28 09:25:08;;;;;;;2.50;0.93;;;15.80;73.30;;;;;;5007272;28;20038;-51
2023/10/28 09:27:40;;;;;;;2.42;1.20;;;15.80;73.10;;;;;;5008419;28;20138;-50
2023/10/28 09:30:10;;;;;;;4.10;0.95;;;15.80;73.10;;;;;;5007014;28;20070;-48
2023/10/28 09:32:38;;;;;;;1.92;0.60;;;15.80;73.10;;;;;;5007468;28;20038;-49
2023/10/28 09:35:07;;;;;;;1.70;0.77;;;15.90;73.20;;;;;;5006168;28;20045;-50
2023/10/28 09:37:39;;;;;;;2.15;1.23;;;16.00;73.20;;;;;;5008684;28;20120;-49
2023/10/28 09:40:12;;;;;;;2.15;0.70;;;16.00;73.00;;;;;;5008379;28;20084;-52
2023/10/28 09:42:46;;;;;;;4.28;0.75;;;16.10;72.80;;;;;;5007086;28;20523;-51
2023/10/28 09:45:16;;;;;;;3.63;0.93;;;16.10;72.70;;;;;;5007916;28;20113;-53
2023/10/28 09:47:56;;;;;;;1.65;0.55;;;16.20;72.50;;;;;;5009312;28;20621;-51
2023/10/28 09:50:27;;;;;;;3.60;1.02;;;16.20;72.20;;;;;;5005299;28;20046;-49
2023/10/28 09:52:58;;;;;;;1.98;0.70;;;16.20;72.30;;;;;;5005112;28;20068;-49
2023/10/28 09:55:32;;;;;;;3.30;0.80;;;16.30;72.20;;;;;;5006420;28;20045;-54
2023/10/28 09:58:11;;;;;;;3.22;1.10;;;16.30;72.00;;;;;;5004945;28;20516;-51
2023/10/28 10:00:38;;;;;;;1.77;0.77;;;16.40;71.50;;;;;;5008070;28;20511;-48
2023/10/28 10:03:08;;;;;;;3.15;0.60;;;16.50;71.60;;;;;;5006837;28;20579;-50
2023/10/28 10:05:41;;;;;;;1.08;0.65;;;16.50;71.30;;;;;;5008677;28;20088;-48
2023/10/28 10:08:24;;;;;;;4.25;1.15;;;16.60;71.00;;;;;;5004108;28;20062;-51
2023/10/28 10:10:57;;;;;;;3.75;0.90;;;16.70;70.80;;;;;;5001760;28;20042;-54
2023/10/28 10:13:24;;;;;;;3.65;0.95;;;16.80;70.50;;;;;;5005630;28;20056;-51
2023/10/28 10:16:03;;;;;;;2.72;0.95;;;16.80;70.60;;;;;;5007929;28;20486;-50
2023/10/28 10:18:38;;;;;;;3.17;0.80;;;16.80;69.60;;;;;;5004965;28;20122;-51
2023/10/28 10:21:10;;;;;;;3.60;1.30;;;16.90;69.80;;;;;;5008029;28;20053;-52
2023/10/28 10:23:42;;;;;;;2.53;0.68;;;16.90;69.60;;;;;;4992382;28;20038;-50
2023/10/28 10:26:30;;;;;;;2.45;0.85;;;16.90;69.40;;;;;;5006115;28;20038;-50
2023/10/28 10:29:03;;;;;;;2.55;0.77;;;16.90;69.30;;;;;;5008646;28;20033;-52
2023/10/28 10:31:31;;;;;;;3.08;1.10;;;16.90;69.90;;;;;;5007712;28;20065;-52
2023/10/28 10:34:07;;;;;;;4.25;1.50;;;16.90;69.80;;;;;;5006690;28;20037;-51
2023/10/28 10:36:43;;;;;;;4.03;1.00;;;17.00;69.40;;;;;;5007114;28;20056;-49
2023/10/28 10:39:20;;;;;;;4.43;0.95;;;17.10;69.30;;;;;;5006200;28;20546;-54
2023/10/28 10:41:49;;;;;;;3.28;1.20;;;17.20;69.00;;;;;;5008026;28;20496;-54
2023/10/28 10:44:33;;;;;;;6.18;1.08;;;17.30;68.70;;;;;;5004192;28;20038;-49
2023/10/28 10:47:08;;;;;;;3.42;1.10;;;17.40;67.30;;;;;;5008135;28;20475;-53
2023/10/28 10:49:43;;;;;;;3.03;1.00;;;17.50;66.80;;;;;;5006781;28;20100;-50
2023/10/28 10:52:10;;;;;;;6.50;1.75;;;17.60;67.10;;;;;;5007335;28;20048;-50
2023/10/28 10:54:40;;;;;;;5.18;1.17;;;17.70;66.40;;;;;;5005952;28;20043;-52
2023/10/28 10:57:09;;;;;;;2.97;1.30;;;17.70;66.20;;;;;;5004905;28;20038;-48
2023/10/28 10:59:40;;;;;;;3.10;1.20;;;17.80;65.50;;;;;;5001956;28;20360;-53
2023/10/28 11:02:07;;;;;;;5.25;1.48;;;17.90;65.00;;;;;;5010146;28;20493;-51
2023/10/28 11:04:36;;;;;;;8.02;1.45;;;18.00;65.10;;;;;;5007505;28;20042;-51
2023/10/28 11:07:04;;;;;;;5.07;1.67;;;18.00;64.60;;;;;;5008437;28;20037;-51
2023/10/28 11:09:33;;;;;;;6.38;1.60;;;18.00;64.40;;;;;;5003550;28;20475;-50
2023/10/28 11:11:59;;;;;;;4.68;1.50;;;18.10;64.10;;;;;;5007163;28;20045;-52
2023/10/28 11:14:29;;;;;;;7.88;1.38;;;18.10;63.90;;;;;;5007331;28;20037;-51
2023/10/28 11:16:56;;;;;;;5.15;0.98;;;18.10;64.10;;;;;;5004773;28;20041;-50
2023/10/28 11:19:24;;;;;;;5.38;1.30;;;18.10;63.90;;;;;;5006177;28;20559;-51
2023/10/28 11:21:51;;;;;;;4.57;1.27;;;18.20;63.70;;;;;;5007197;28;20046;-49
2023/10/28 11:24:17;;;;;;;4.63;1.10;;;18.20;63.90;;;;;;5006000;28;20048;-49
2023/10/28 11:26:45;;;;;;;3.45;1.50;;;18.10;63.60;;;;;;5003063;28;20041;-50
2023/10/28 11:29:15;;;;;;;4.53;1.15;;;18.20;63.80;;;;;;4988856;28;20128;-49
2023/10/28 11:31:41;;;;;;;4.90;1.33;;;18.10;63.50;;;;;;5006618;28;20044;-49
2023/10/28 11:34:08;;;;;;;2.25;0.90;;;18.10;63.90;;;;;;5002057;28;20045;-49
2023/10/28 11:36:37;;;;;;;5.72;1.40;;;18.20;63.60;;;;;;4998797;28;20081;-49
2023/10/28 11:39:13;;;;;;;6.82;2.33;;;18.20;63.70;;;;;;5006010;28;20073;-53
2023/10/28 11:41:47;;;;;;;4.55;1.60;;;18.30;63.50;;;;;;5006699;28;20749;-54
2023/10/28 11:44:13;;;;;;;8.70;2.22;;;18.40;63.70;;;;;;4999506;28;20566;-47
2023/10/28 11:46:40;;;;;;;4.97;1.70;;;18.40;64.00;;;;;;5006347;28;20813;-49
2023/10/28 11:49:08;;;;;;;3.42;1.30;;;18.50;63.80;;;;;;5007488;28;20050;-49
2023/10/28 11:51:34;;;;;;;3.75;1.55;;;18.60;63.30;;;;;;4986975;28;20088;-50
2023/10/28 11:54:03;;;;;;;5.60;1.85;;;18.70;62.80;;;;;;5005679;28;20050;-52
2023/10/28 11:56:32;;;;;;;5.53;1.63;;;18.70;62.40;;;;;;5003735;28;20117;-50
2023/10/28 11:58:59;;;;;;;8.88;3.33;;;18.80;62.30;;;;;;5003254;28;20456;-49
2023/10/28 12:01:28;;;;;;;5.35;2.08;;;18.80;62.20;;;;;;5006195;28;20065;-49
2023/10/28 12:03:55;;;;;;;4.35;1.58;;;18.90;62.00;;;;;;5007668;28;20042;-48
2023/10/28 12:06:22;;;;;;;5.70;1.60;;;18.90;61.80;;;;;;5003065;28;20049;-53
2023/10/28 12:08:57;;;;;;;3.65;1.40;;;18.90;61.70;;;;;;5005322;28;20444;-50
2023/10/28 12:11:27;;;;;;;4.65;1.35;;;18.90;60.90;;;;;;5001115;28;20101;-51
2023/10/28 12:13:56;;;;;;;5.15;1.90;;;18.90;60.70;;;;;;5008280;28;20046;-50
2023/10/28 12:16:23;;;;;;;4.35;1.42;;;18.80;60.30;;;;;;5008147;28;20113;-50
2023/10/28 12:18:50;;;;;;;3.10;1.50;;;18.80;60.50;;;;;;5008498;28;20065;-52
2023/10/28 12:21:18;;;;;;;4.68;1.48;;;18.70;60.70;;;;;;5011393;28;20548;-51
2023/10/28 12:23:45;;;;;;;5.30;1.80;;;18.70;60.00;;;;;;5010537;28;20397;-54
2023/10/28 12:26:12;;;;;;;7.22;2.17;;;18.60;60.00;;;;;;5008457;28;20041;-53
2023/10/28 12:28:39;;;;;;;5.03;1.92;;;18.60;60.20;;;;;;5010104;28;20536;-48
2023/10/28 12:31:06;;;;;;;6.03;1.52;;;18.60;60.40;;;;;;5010692;28;20070;-52
2023/10/28 12:33:33;;;;;;;7.18;1.92;;;18.60;60.50;;;;;;5008360;28;20061;-50
2023/10/28 12:36:06;;;;;;;3.77;1.30;;;18.60;60.60;;;;;;5008387;28;20046;-50
2023/10/28 12:38:33;;;;;;;3.28;1.08;;;18.60;60.60;;;;;;5009730;28;20120;-50
2023/10/28 12:41:00;;;;;;;6.05;1.27;;;18.70;60.50;;;;;;5009777;28;20056;-50
2023/10/28 12:43:27;;;;;;;2.97;1.30;;;18.70;60.50;;;;;;5006148;28;20034;-48
2023/10/28 12:45:54;;;;;;;3.17;1.17;;;18.70;60.60;;;;;;5008263;28;20124;-53
2023/10/28 12:48:20;;;;;;;5.07;1.40;;;18.80;60.50;;;;;;5009716;28;20447;-53
2023/10/28 12:50:47;;;;;;;5.13;1.40;;;18.80;60.40;;;;;;5006867;28;20078;-52
2023/10/28 12:53:17;;;;;;;4.93;1.13;;;18.70;60.40;;;;;;5007241;28;20128;-50